sensor_id;sensor_type;location;lat;lon;timestamp;pressure;altitude;pressure_sealevel;temperature;humidity
56582;BME280;42463;52.214;21.238;2023-04-22T00:05:14;100309.37;;;10.43;52.87
56582;BME280;42463;52.214;21.238;2023-04-22T00:11:35;100310.42;;;10.51;52.87
56582;BME280;42463;52.214;21.238;2023-04-22T00:14:48;100305.77;;;10.51;52.99
56582;BME280;42463;52.214;21.238;2023-04-22T00:18:22;100308.33;;;10.53;52.64
56582;BME280;42463;52.214;21.238;2023-04-22T00:28:24;100304.63;;;10.16;53.58
56582;BME280;42463;52.214;21.238;2023-04-22T00:31:19;100296.89;;;10.12;53.92
56582;BME280;42463;52.214;21.238;2023-04-22T00:34:28;100299.00;;;10.12;53.97
56582;BME280;42463;52.214;21.238;2023-04-22T00:44:36;100297.73;;;10.15;52.70
56582;BME280;42463;52.214;21.238;2023-04-22T00:47:27;100296.84;;;10.13;52.60
56582;BME280;42463;52.214;21.238;2023-04-22T00:50:30;100296.27;;;10.11;52.68
56582;BME280;42463;52.214;21.238;2023-04-22T00:53:45;100294.94;;;10.08;53.26
56582;BME280;42463;52.214;21.238;2023-04-22T00:56:34;100294.96;;;10.01;53.84
56582;BME280;42463;52.214;21.238;2023-04-22T00:59:19;100294.02;;;9.93;54.08
56582;BME280;42463;52.214;21.238;2023-04-22T01:05:37;100296.49;;;9.92;53.97
56582;BME280;42463;52.214;21.238;2023-04-22T01:08:36;100290.44;;;9.93;53.90
56582;BME280;42463;52.214;21.238;2023-04-22T01:11:18;100289.23;;;9.91;53.84
56582;BME280;42463;52.214;21.238;2023-04-22T01:13:56;100289.58;;;9.84;54.09
56582;BME280;42463;52.214;21.238;2023-04-22T01:16:30;100291.02;;;9.82;54.28
56582;BME280;42463;52.214;21.238;2023-04-22T01:19:09;100292.17;;;9.83;54.43
56582;BME280;42463;52.214;21.238;2023-04-22T01:21:53;100290.93;;;9.84;54.41
56582;BME280;42463;52.214;21.238;2023-04-22T01:24:29;100293.81;;;9.84;54.50
56582;BME280;42463;52.214;21.238;2023-04-22T01:27:06;100292.17;;;9.83;54.52
56582;BME280;42463;52.214;21.238;2023-04-22T01:29:44;100293.45;;;9.82;54.99
56582;BME280;42463;52.214;21.238;2023-04-22T01:32:19;100295.70;;;9.76;55.22
56582;BME280;42463;52.214;21.238;2023-04-22T01:34:54;100294.56;;;9.71;55.32
56582;BME280;42463;52.214;21.238;2023-04-22T01:37:28;100298.27;;;9.65;55.67
56582;BME280;42463;52.214;21.238;2023-04-22T01:40:08;100292.80;;;9.53;56.16
56582;BME280;42463;52.214;21.238;2023-04-22T01:43:20;100296.61;;;9.42;56.56
56582;BME280;42463;52.214;21.238;2023-04-22T01:45:54;100293.88;;;9.35;56.93
56582;BME280;42463;52.214;21.238;2023-04-22T01:48:32;100293.77;;;9.35;57.17
56582;BME280;42463;52.214;21.238;2023-04-22T01:51:10;100293.59;;;9.39;57.13
56582;BME280;42463;52.214;21.238;2023-04-22T01:53:47;100292.11;;;9.42;57.12
56582;BME280;42463;52.214;21.238;2023-04-22T01:56:23;100296.63;;;9.40;56.85
56582;BME280;42463;52.214;21.238;2023-04-22T01:59:01;100292.51;;;9.33;56.90
56582;BME280;42463;52.214;21.238;2023-04-22T02:01:37;100291.36;;;9.32;57.29
56582;BME280;42463;52.214;21.238;2023-04-22T02:04:05;100290.73;;;9.34;57.35
56582;BME280;42463;52.214;21.238;2023-04-22T02:06:43;100290.23;;;9.36;57.36
56582;BME280;42463;52.214;21.238;2023-04-22T02:09:17;100290.09;;;9.40;57.58
56582;BME280;42463;52.214;21.238;2023-04-22T02:12:00;100289.92;;;9.40;57.38
56582;BME280;42463;52.214;21.238;2023-04-22T02:15:03;100289.45;;;9.41;57.29
56582;BME280;42463;52.214;21.238;2023-04-22T02:17:37;100289.55;;;9.35;56.92
56582;BME280;42463;52.214;21.238;2023-04-22T02:20:31;100283.20;;;9.22;56.84
56582;BME280;42463;52.214;21.238;2023-04-22T02:23:13;100282.26;;;9.09;57.49
56582;BME280;42463;52.214;21.238;2023-04-22T02:25:54;100279.35;;;9.01;57.66
56582;BME280;42463;52.214;21.238;2023-04-22T02:28:32;100280.31;;;8.96;57.87
56582;BME280;42463;52.214;21.238;2023-04-22T02:31:07;100277.74;;;8.94;57.99
56582;BME280;42463;52.214;21.238;2023-04-22T02:33:40;100276.54;;;8.87;58.10
56582;BME280;42463;52.214;21.238;2023-04-22T02:36:15;100277.20;;;8.87;58.29
56582;BME280;42463;52.214;21.238;2023-04-22T02:38:56;100277.59;;;8.91;58.58
56582;BME280;42463;52.214;21.238;2023-04-22T02:41:32;100277.48;;;8.91;58.50
56582;BME280;42463;52.214;21.238;2023-04-22T02:44:07;100276.19;;;8.88;58.38
56582;BME280;42463;52.214;21.238;2023-04-22T02:46:42;100278.60;;;8.84;58.67
56582;BME280;42463;52.214;21.238;2023-04-22T02:49:22;100274.66;;;8.84;58.77
56582;BME280;42463;52.214;21.238;2023-04-22T02:51:56;100277.48;;;8.84;58.60
56582;BME280;42463;52.214;21.238;2023-04-22T02:54:35;100280.27;;;8.83;58.54
56582;BME280;42463;52.214;21.238;2023-04-22T02:57:12;100280.69;;;8.79;58.49
56582;BME280;42463;52.214;21.238;2023-04-22T02:59:47;100278.92;;;8.80;58.10
56582;BME280;42463;52.214;21.238;2023-04-22T03:05:36;100283.21;;;8.85;57.72
56582;BME280;42463;52.214;21.238;2023-04-22T03:08:18;100276.36;;;8.86;57.63
56582;BME280;42463;52.214;21.238;2023-04-22T03:10:54;100278.94;;;8.81;57.42
56582;BME280;42463;52.214;21.238;2023-04-22T03:13:31;100284.45;;;8.74;57.60
56582;BME280;42463;52.214;21.238;2023-04-22T03:16:05;100282.95;;;8.65;57.82
56582;BME280;42463;52.214;21.238;2023-04-22T03:18:43;100287.91;;;8.57;57.93
56582;BME280;42463;52.214;21.238;2023-04-22T03:21:19;100285.98;;;8.53;58.10
56582;BME280;42463;52.214;21.238;2023-04-22T03:23:58;100285.58;;;8.54;58.39
56582;BME280;42463;52.214;21.238;2023-04-22T03:26:36;100286.44;;;8.48;57.96
56582;BME280;42463;52.214;21.238;2023-04-22T03:29:14;100292.27;;;8.41;58.29
56582;BME280;42463;52.214;21.238;2023-04-22T03:31:53;100294.05;;;8.38;58.39
56582;BME280;42463;52.214;21.238;2023-04-22T03:34:32;100296.88;;;8.36;58.60
56582;BME280;42463;52.214;21.238;2023-04-22T03:37:10;100296.61;;;8.31;58.88
56582;BME280;42463;52.214;21.238;2023-04-22T03:39:46;100295.90;;;8.27;58.80
56582;BME280;42463;52.214;21.238;2023-04-22T03:45:31;100299.14;;;8.30;59.18
56582;BME280;42463;52.214;21.238;2023-04-22T03:48:15;100297.94;;;8.38;59.05
56582;BME280;42463;52.214;21.238;2023-04-22T03:50:53;100302.30;;;8.40;58.81
56582;BME280;42463;52.214;21.238;2023-04-22T04:05:05;100310.31;;;8.29;59.30
56582;BME280;42463;52.214;21.238;2023-04-22T04:07:43;100312.85;;;8.23;59.40
56582;BME280;42463;52.214;21.238;2023-04-22T04:10:16;100312.16;;;8.24;59.77
56582;BME280;42463;52.214;21.238;2023-04-22T04:12:49;100316.91;;;8.27;59.89
56582;BME280;42463;52.214;21.238;2023-04-22T04:15:26;100318.17;;;8.24;59.95
56582;BME280;42463;52.214;21.238;2023-04-22T04:18:04;100315.20;;;8.16;60.02
56582;BME280;42463;52.214;21.238;2023-04-22T04:20:42;100315.70;;;8.11;60.28
56582;BME280;42463;52.214;21.238;2023-04-22T04:23:17;100319.98;;;8.09;60.28
56582;BME280;42463;52.214;21.238;2023-04-22T04:25:51;100317.90;;;8.05;60.33
56582;BME280;42463;52.214;21.238;2023-04-22T04:28:29;100320.89;;;8.00;60.24
56582;BME280;42463;52.214;21.238;2023-04-22T04:31:04;100321.71;;;7.98;60.53
56582;BME280;42463;52.214;21.238;2023-04-22T04:33:38;100324.41;;;8.01;60.80
56582;BME280;42463;52.214;21.238;2023-04-22T04:36:16;100322.44;;;8.05;60.87
56582;BME280;42463;52.214;21.238;2023-04-22T04:38:54;100322.10;;;8.13;60.98
56582;BME280;42463;52.214;21.238;2023-04-22T04:41:31;100329.92;;;8.25;60.89
56582;BME280;42463;52.214;21.238;2023-04-22T04:44:08;100328.44;;;8.35;60.83
56582;BME280;42463;52.214;21.238;2023-04-22T04:46:44;100319.58;;;8.37;60.93
56582;BME280;42463;52.214;21.238;2023-04-22T04:49:20;100330.30;;;8.49;60.99
56582;BME280;42463;52.214;21.238;2023-04-22T04:51:56;100328.83;;;8.53;60.96
56582;BME280;42463;52.214;21.238;2023-04-22T04:54:43;100328.96;;;8.58;60.58
56582;BME280;42463;52.214;21.238;2023-04-22T04:57:21;100323.98;;;8.70;60.74
56582;BME280;42463;52.214;21.238;2023-04-22T04:59:53;100329.56;;;8.87;60.81
56582;BME280;42463;52.214;21.238;2023-04-22T05:09:00;100329.47;;;9.36;59.50
56582;BME280;42463;52.214;21.238;2023-04-22T05:11:33;100326.36;;;9.51;59.35
56582;BME280;42463;52.214;21.238;2023-04-22T05:14:12;100327.44;;;9.67;59.00
56582;BME280;42463;52.214;21.238;2023-04-22T05:17:02;100325.15;;;9.83;58.96
56582;BME280;42463;52.214;21.238;2023-04-22T05:23:09;100330.27;;;10.18;57.89
56582;BME280;42463;52.214;21.238;2023-04-22T05:25:48;100328.13;;;10.35;57.55
56582;BME280;42463;52.214;21.238;2023-04-22T05:28:24;100332.71;;;10.50;57.02
56582;BME280;42463;52.214;21.238;2023-04-22T05:31:01;100330.20;;;10.65;56.48
56582;BME280;42463;52.214;21.238;2023-04-22T05:33:33;100333.23;;;10.77;56.03
56582;BME280;42463;52.214;21.238;2023-04-22T05:36:11;100325.17;;;10.91;55.34
56582;BME280;42463;52.214;21.238;2023-04-22T05:38:50;100326.58;;;11.05;55.03
56582;BME280;42463;52.214;21.238;2023-04-22T05:41:25;100331.42;;;11.20;54.61
56582;BME280;42463;52.214;21.238;2023-04-22T05:43:59;100329.39;;;11.32;54.22
56582;BME280;42463;52.214;21.238;2023-04-22T05:46:36;100330.50;;;11.42;54.07
56582;BME280;42463;52.214;21.238;2023-04-22T05:49:15;100332.45;;;11.56;53.57
56582;BME280;42463;52.214;21.238;2023-04-22T05:56:57;100324.48;;;11.88;52.90
56582;BME280;42463;52.214;21.238;2023-04-22T06:41:31;100320.56;;;14.02;48.02
56582;BME280;42463;52.214;21.238;2023-04-22T06:44:42;100323.33;;;14.19;47.28
56582;BME280;42463;52.214;21.238;2023-04-22T07:12:24;100318.71;;;15.80;43.79
56582;BME280;42463;52.214;21.238;2023-04-22T07:15:06;100315.98;;;15.95;43.38
56582;BME280;42463;52.214;21.238;2023-04-22T07:17:51;100317.63;;;16.11;43.30
56582;BME280;42463;52.214;21.238;2023-04-22T07:20:59;100315.88;;;16.28;42.93
56582;BME280;42463;52.214;21.238;2023-04-22T07:24:09;100319.08;;;16.52;42.45
56582;BME280;42463;52.214;21.238;2023-04-22T07:46:31;100298.48;;;17.76;38.08
56582;BME280;42463;52.214;21.238;2023-04-22T07:53:27;100299.70;;;17.96;36.18
56582;BME280;42463;52.214;21.238;2023-04-22T07:57:05;100297.27;;;18.08;35.89
56582;BME280;42463;52.214;21.238;2023-04-22T08:10:30;100299.08;;;18.87;35.40
56582;BME280;42463;52.214;21.238;2023-04-22T08:16:15;100298.14;;;19.22;33.72
56582;BME280;42463;52.214;21.238;2023-04-22T08:23:03;100291.69;;;19.45;33.16
56582;BME280;42463;52.214;21.238;2023-04-22T08:33:05;100290.67;;;19.95;32.63
56582;BME280;42463;52.214;21.238;2023-04-22T08:38:36;100292.38;;;20.19;32.11
56582;BME280;42463;52.214;21.238;2023-04-22T08:44:42;100290.36;;;20.39;31.25
56582;BME280;42463;52.214;21.238;2023-04-22T09:09:02;100278.52;;;21.11;31.16
56582;BME280;42463;52.214;21.238;2023-04-22T09:12:07;100279.39;;;21.18;30.31
56582;BME280;42463;52.214;21.238;2023-04-22T09:15:07;100273.18;;;21.30;30.66
56582;BME280;42463;52.214;21.238;2023-04-22T09:25:57;100270.23;;;21.77;30.85
56582;BME280;42463;52.214;21.238;2023-04-22T09:32:22;100269.92;;;21.65;29.50
56582;BME280;42463;52.214;21.238;2023-04-22T11:34:56;100184.92;;;22.53;26.60
56582;BME280;42463;52.214;21.238;2023-04-22T12:00:42;100173.98;;;21.78;28.09
56582;BME280;42463;52.214;21.238;2023-04-22T12:04:00;100177.31;;;21.67;28.02
56582;BME280;42463;52.214;21.238;2023-04-22T12:14:29;100163.02;;;21.91;28.69
56582;BME280;42463;52.214;21.238;2023-04-22T12:20:51;100162.94;;;22.28;31.77
56582;BME280;42463;52.214;21.238;2023-04-22T12:23:28;100156.43;;;22.42;29.22
56582;BME280;42463;52.214;21.238;2023-04-22T12:26:42;100162.95;;;22.48;28.11
56582;BME280;42463;52.214;21.238;2023-04-22T12:29:30;100160.48;;;22.50;28.95
56582;BME280;42463;52.214;21.238;2023-04-22T12:33:10;100156.00;;;22.59;28.13
56582;BME280;42463;52.214;21.238;2023-04-22T12:36:15;100152.65;;;22.49;26.72
56582;BME280;42463;52.214;21.238;2023-04-22T12:39:08;100148.67;;;22.33;27.00
56582;BME280;42463;52.214;21.238;2023-04-22T13:08:19;100133.65;;;21.43;28.13
56582;BME280;42463;52.214;21.238;2023-04-22T13:14:34;100128.35;;;21.34;28.10
56582;BME280;42463;52.214;21.238;2023-04-22T13:17:31;100127.31;;;21.26;28.28
56582;BME280;42463;52.214;21.238;2023-04-22T13:23:12;100129.20;;;21.15;28.91
56582;BME280;42463;52.214;21.238;2023-04-22T13:25:51;100125.89;;;21.15;28.63
56582;BME280;42463;52.214;21.238;2023-04-22T13:31:29;100122.70;;;21.10;28.59
56582;BME280;42463;52.214;21.238;2023-04-22T13:34:43;100121.28;;;21.07;28.29
56582;BME280;42463;52.214;21.238;2023-04-22T13:38:14;100123.61;;;21.01;28.57
56582;BME280;42463;52.214;21.238;2023-04-22T13:40:48;100123.61;;;21.00;28.62
56582;BME280;42463;52.214;21.238;2023-04-22T13:43:23;100119.95;;;20.99;28.78
56582;BME280;42463;52.214;21.238;2023-04-22T13:49:38;100118.45;;;20.93;28.93
56582;BME280;42463;52.214;21.238;2023-04-22T13:52:24;100114.77;;;20.88;29.01
56582;BME280;42463;52.214;21.238;2023-04-22T14:06:26;100112.98;;;20.61;29.33
56582;BME280;42463;52.214;21.238;2023-04-22T14:12:40;100108.98;;;20.60;29.40
56582;BME280;42463;52.214;21.238;2023-04-22T14:18:48;100110.02;;;20.58;29.43
56582;BME280;42463;52.214;21.238;2023-04-22T14:24:58;100109.67;;;20.54;30.22
56582;BME280;42463;52.214;21.238;2023-04-22T14:31:09;100103.75;;;20.50;29.91
56582;BME280;42463;52.214;21.238;2023-04-22T14:37:27;100100.55;;;20.47;29.97
56582;BME280;42463;52.214;21.238;2023-04-22T14:40:21;100103.23;;;20.45;29.79
56582;BME280;42463;52.214;21.238;2023-04-22T14:43:01;100099.45;;;20.44;30.10
56582;BME280;42463;52.214;21.238;2023-04-22T14:48:49;100100.64;;;20.35;31.35
56582;BME280;42463;52.214;21.238;2023-04-22T15:06:30;100086.67;;;20.11;31.24
56582;BME280;42463;52.214;21.238;2023-04-22T15:12:39;100089.70;;;20.08;33.21
56582;BME280;42463;52.214;21.238;2023-04-22T15:15:35;100084.41;;;20.08;33.34
56582;BME280;42463;52.214;21.238;2023-04-22T15:18:19;100086.65;;;20.07;32.66
56582;BME280;42463;52.214;21.238;2023-04-22T15:28:51;100084.48;;;20.09;31.09
56582;BME280;42463;52.214;21.238;2023-04-22T15:31:38;100083.96;;;20.12;30.87
56582;BME280;42463;52.214;21.238;2023-04-22T15:34:37;100080.65;;;20.14;30.36
56582;BME280;42463;52.214;21.238;2023-04-22T15:37:23;100077.80;;;20.13;29.63
56582;BME280;42463;52.214;21.238;2023-04-22T16:18:08;100069.58;;;19.98;30.31
56582;BME280;42463;52.214;21.238;2023-04-22T16:24:57;100068.00;;;19.96;29.88
56582;BME280;42463;52.214;21.238;2023-04-22T16:44:59;100060.02;;;19.75;30.11
56582;BME280;42463;52.214;21.238;2023-04-22T16:54:45;100057.72;;;19.69;30.14
56582;BME280;42463;52.214;21.238;2023-04-22T16:58:00;100053.77;;;19.69;30.09
56582;BME280;42463;52.214;21.238;2023-04-22T17:01:25;100057.01;;;19.67;30.20
56582;BME280;42463;52.214;21.238;2023-04-22T18:32:22;100088.76;;;16.57;40.51
56582;BME280;42463;52.214;21.238;2023-04-22T18:39:39;100101.80;;;16.35;41.43
56582;BME280;42463;52.214;21.238;2023-04-22T18:43:24;100103.93;;;16.19;41.65
56582;BME280;42463;52.214;21.238;2023-04-22T18:58:15;100101.69;;;15.46;42.41
56582;BME280;42463;52.214;21.238;2023-04-22T19:31:40;100106.84;;;14.43;44.88
56582;BME280;42463;52.214;21.238;2023-04-22T19:35:07;100104.95;;;14.31;45.05
56582;BME280;42463;52.214;21.238;2023-04-22T19:37:58;100107.36;;;14.24;45.09
56582;BME280;42463;52.214;21.238;2023-04-22T19:40:36;100102.38;;;14.20;45.33
56582;BME280;42463;52.214;21.238;2023-04-22T19:43:16;100102.52;;;14.17;45.21
56582;BME280;42463;52.214;21.238;2023-04-22T19:45:50;100102.61;;;14.12;45.55
56582;BME280;42463;52.214;21.238;2023-04-22T19:51:48;100100.21;;;13.98;45.72
56582;BME280;42463;52.214;21.238;2023-04-22T19:57:33;100098.77;;;13.94;46.18
56582;BME280;42463;52.214;21.238;2023-04-22T20:00:09;100098.83;;;13.88;46.27
56582;BME280;42463;52.214;21.238;2023-04-22T20:02:46;100097.88;;;13.83;46.55
56582;BME280;42463;52.214;21.238;2023-04-22T20:05:25;100096.45;;;13.76;46.50
56582;BME280;42463;52.214;21.238;2023-04-22T20:08:01;100098.45;;;13.71;46.76
56582;BME280;42463;52.214;21.238;2023-04-22T20:14:28;100096.86;;;13.63;46.95
56582;BME280;42463;52.214;21.238;2023-04-22T20:17:02;100096.27;;;13.60;47.17
56582;BME280;42463;52.214;21.238;2023-04-22T20:19:33;100094.33;;;13.59;47.31
56582;BME280;42463;52.214;21.238;2023-04-22T20:22:05;100096.75;;;13.54;47.50
56582;BME280;42463;52.214;21.238;2023-04-22T20:24:43;100101.67;;;13.48;47.77
56582;BME280;42463;52.214;21.238;2023-04-22T20:27:16;100098.70;;;13.41;48.05
56582;BME280;42463;52.214;21.238;2023-04-22T20:29:55;100097.92;;;13.33;48.26
56582;BME280;42463;52.214;21.238;2023-04-22T20:32:35;100096.80;;;13.30;48.39
56582;BME280;42463;52.214;21.238;2023-04-22T20:35:13;100096.98;;;13.29;48.45
56582;BME280;42463;52.214;21.238;2023-04-22T20:37:50;100098.23;;;13.29;48.53
56582;BME280;42463;52.214;21.238;2023-04-22T20:40:35;100101.11;;;13.27;48.67
56582;BME280;42463;52.214;21.238;2023-04-22T20:43:13;100097.98;;;13.23;48.66
56582;BME280;42463;52.214;21.238;2023-04-22T20:45:48;100094.99;;;13.20;48.55
56582;BME280;42463;52.214;21.238;2023-04-22T20:48:25;100092.59;;;13.16;48.82
56582;BME280;42463;52.214;21.238;2023-04-22T20:51:20;100100.17;;;13.12;49.01
56582;BME280;42463;52.214;21.238;2023-04-22T20:53:54;100098.62;;;13.05;49.00
56582;BME280;42463;52.214;21.238;2023-04-22T20:56:31;100104.02;;;13.01;49.11
56582;BME280;42463;52.214;21.238;2023-04-22T20:59:08;100101.87;;;12.97;49.23
56582;BME280;42463;52.214;21.238;2023-04-22T21:04:53;100102.34;;;12.85;49.57
56582;BME280;42463;52.214;21.238;2023-04-22T21:07:28;100099.10;;;12.77;49.58
56582;BME280;42463;52.214;21.238;2023-04-22T21:10:05;100095.09;;;12.69;49.77
56582;BME280;42463;52.214;21.238;2023-04-22T21:12:45;100098.15;;;12.65;49.68
56582;BME280;42463;52.214;21.238;2023-04-22T21:15:19;100100.55;;;12.63;49.73
56582;BME280;42463;52.214;21.238;2023-04-22T21:17:59;100100.06;;;12.61;49.78
56582;BME280;42463;52.214;21.238;2023-04-22T21:20:38;100100.98;;;12.58;49.87
56582;BME280;42463;52.214;21.238;2023-04-22T21:23:15;100099.48;;;12.53;50.73
56582;BME280;42463;52.214;21.238;2023-04-22T21:25:51;100101.98;;;12.49;50.87
56582;BME280;42463;52.214;21.238;2023-04-22T21:28:29;100099.78;;;12.47;50.61
56582;BME280;42463;52.214;21.238;2023-04-22T21:31:18;100103.27;;;12.41;50.63
56582;BME280;42463;52.214;21.238;2023-04-22T21:33:56;100105.84;;;12.35;50.56
56582;BME280;42463;52.214;21.238;2023-04-22T21:36:29;100107.09;;;12.30;50.56
56582;BME280;42463;52.214;21.238;2023-04-22T21:39:06;100107.42;;;12.26;50.68
56582;BME280;42463;52.214;21.238;2023-04-22T21:41:33;100105.46;;;12.22;51.23
56582;BME280;42463;52.214;21.238;2023-04-22T21:44:10;100106.34;;;12.14;51.48
56582;BME280;42463;52.214;21.238;2023-04-22T21:46:48;100104.48;;;12.07;51.64
56582;BME280;42463;52.214;21.238;2023-04-22T21:49:31;100108.79;;;12.04;52.00
56582;BME280;42463;52.214;21.238;2023-04-22T21:52:10;100108.30;;;12.02;51.84
56582;BME280;42463;52.214;21.238;2023-04-22T21:54:48;100106.17;;;11.98;51.77
56582;BME280;42463;52.214;21.238;2023-04-22T21:57:32;100106.66;;;11.97;51.55
56582;BME280;42463;52.214;21.238;2023-04-22T22:00:10;100104.48;;;11.93;51.71
56582;BME280;42463;52.214;21.238;2023-04-22T22:02:43;100106.23;;;11.90;52.06
56582;BME280;42463;52.214;21.238;2023-04-22T22:05:20;100107.85;;;11.85;52.11
56582;BME280;42463;52.214;21.238;2023-04-22T22:08:00;100105.71;;;11.78;52.29
56582;BME280;42463;52.214;21.238;2023-04-22T22:13:53;100104.86;;;11.70;52.46
56582;BME280;42463;52.214;21.238;2023-04-22T22:16:30;100107.13;;;11.65;52.56
56582;BME280;42463;52.214;21.238;2023-04-22T22:19:02;100109.13;;;11.58;52.66
56582;BME280;42463;52.214;21.238;2023-04-22T22:21:42;100112.27;;;11.51;52.94
56582;BME280;42463;52.214;21.238;2023-04-22T22:24:20;100109.05;;;11.49;53.26
56582;BME280;42463;52.214;21.238;2023-04-22T22:26:56;100111.12;;;11.48;53.43
56582;BME280;42463;52.214;21.238;2023-04-22T22:29:35;100107.80;;;11.48;53.43
56582;BME280;42463;52.214;21.238;2023-04-22T22:32:13;100114.48;;;11.49;53.30
56582;BME280;42463;52.214;21.238;2023-04-22T22:34:50;100113.94;;;11.47;53.36
56582;BME280;42463;52.214;21.238;2023-04-22T22:37:26;100109.23;;;11.43;53.34
56582;BME280;42463;52.214;21.238;2023-04-22T22:40:00;100109.92;;;11.39;53.41
56582;BME280;42463;52.214;21.238;2023-04-22T22:42:36;100109.36;;;11.33;53.25
56582;BME280;42463;52.214;21.238;2023-04-22T22:45:15;100111.40;;;11.26;53.48
56582;BME280;42463;52.214;21.238;2023-04-22T22:47:55;100098.90;;;11.11;53.73
56582;BME280;42463;52.214;21.238;2023-04-22T22:53:56;100112.02;;;11.04;53.88
56582;BME280;42463;52.214;21.238;2023-04-22T22:56:35;100110.31;;;10.98;54.07
56582;BME280;42463;52.214;21.238;2023-04-22T22:59:10;100114.89;;;10.93;54.57
56582;BME280;42463;52.214;21.238;2023-04-22T23:01:38;100112.27;;;10.87;54.65
56582;BME280;42463;52.214;21.238;2023-04-22T23:04:14;100113.56;;;10.86;54.76
56582;BME280;42463;52.214;21.238;2023-04-22T23:06:55;100114.80;;;10.86;54.82
56582;BME280;42463;52.214;21.238;2023-04-22T23:09:29;100118.06;;;10.86;54.61
56582;BME280;42463;52.214;21.238;2023-04-22T23:12:05;100112.48;;;10.85;54.77
56582;BME280;42463;52.214;21.238;2023-04-22T23:14:41;100118.50;;;10.85;54.86
56582;BME280;42463;52.214;21.238;2023-04-22T23:17:19;100115.73;;;10.85;54.96
56582;BME280;42463;52.214;21.238;2023-04-22T23:19:56;100116.82;;;10.85;54.89
56582;BME280;42463;52.214;21.238;2023-04-22T23:22:35;100116.48;;;10.82;54.82
56582;BME280;42463;52.214;21.238;2023-04-22T23:25:09;100118.52;;;10.77;54.86
56582;BME280;42463;52.214;21.238;2023-04-22T23:27:44;100114.91;;;10.74;55.03
56582;BME280;42463;52.214;21.238;2023-04-22T23:30:22;100115.83;;;10.73;55.11
56582;BME280;42463;52.214;21.238;2023-04-22T23:33:28;100111.52;;;10.71;55.04
56582;BME280;42463;52.214;21.238;2023-04-22T23:36:06;100108.63;;;10.67;55.24
56582;BME280;42463;52.214;21.238;2023-04-22T23:38:33;100102.69;;;10.64;55.09
56582;BME280;42463;52.214;21.238;2023-04-22T23:41:13;100098.64;;;10.57;55.41
56582;BME280;42463;52.214;21.238;2023-04-22T23:43:46;100100.17;;;10.52;55.25
56582;BME280;42463;52.214;21.238;2023-04-22T23:46:20;100099.65;;;10.45;55.45
56582;BME280;42463;52.214;21.238;2023-04-22T23:48:56;100099.76;;;10.39;55.65
56582;BME280;42463;52.214;21.238;2023-04-22T23:51:30;100099.77;;;10.35;55.70
56582;BME280;42463;52.214;21.238;2023-04-22T23:54:03;100102.13;;;10.32;55.68
56582;BME280;42463;52.214;21.238;2023-04-22T23:56:40;100104.21;;;10.27;55.89
56582;BME280;42463;52.214;21.238;2023-04-22T23:59:16;100102.27;;;10.23;55.99
